Time;durP1;ratioP1;P1;durP2;ratioP2;P2;SDS_P1;SDS_P2;PMS_P1;PMS_P2;Temp;Humidity;BMP_temperature;BMP_pressure;BME280_temperature;BME280_humidity;BME280_pressure;Samples;Min_cycle;Max_cycle;Signal;HPM_P1;HPM_P2
2022/06/07 00:01:45;;;;;;;19.65;14.15;;;;;;;16.05;77.66;100535.56;1744706;80;25310;-70
2022/06/07 00:04:14;;;;;;;19.62;13.60;;;;;;;16.01;77.76;100536.74;1750180;80;99271;-68
2022/06/07 00:06:40;;;;;;;21.42;14.20;;;;;;;15.97;77.89;100530.67;1749738;80;25869;-68
2022/06/07 00:09:06;;;;;;;18.10;13.30;;;;;;;15.97;78.06;100527.97;1757628;80;25975;-68
2022/06/07 00:11:33;;;;;;;17.92;13.72;;;;;;;15.96;78.16;100526.24;1750710;80;98846;-69
2022/06/07 00:14:01;;;;;;;22.40;14.35;;;;;;;15.95;78.10;100531.27;1758083;80;25708;-68
2022/06/07 00:16:32;;;;;;;18.75;14.20;;;;;;;15.90;78.24;100531.58;1746463;80;99050;-68
2022/06/07 00:18:58;;;;;;;17.82;13.60;;;;;;;15.88;78.28;100534.00;1744410;80;25802;-69
2022/06/07 00:21:29;;;;;;;23.27;14.50;;;;;;;15.84;78.38;100528.42;1756647;79;99231;-69
2022/06/07 00:23:56;;;;;;;20.77;13.80;;;;;;;15.83;78.51;100526.69;1749368;79;25736;-70
2022/06/07 00:26:22;;;;;;;24.70;16.42;;;;;;;15.80;78.48;100532.30;1747800;79;26230;-68
2022/06/07 00:28:50;;;;;;;20.70;15.18;;;;;;;15.75;78.55;100527.20;1744494;80;99077;-69
2022/06/07 00:31:16;;;;;;;23.30;14.73;;;;;;;15.70;78.54;100525.28;1748834;79;25768;-69
2022/06/07 00:33:42;;;;;;;18.42;14.63;;;;;;;15.68;78.66;100529.92;1741216;80;99240;-68
2022/06/07 00:36:10;;;;;;;18.73;14.78;;;;;;;15.67;78.77;100524.63;1753185;80;26466;-69
2022/06/07 00:38:36;;;;;;;22.55;15.60;;;;;;;15.66;78.87;100522.41;1745517;80;25806;-69
2022/06/07 00:41:04;;;;;;;23.83;16.48;;;;;;;15.63;78.91;100519.91;1740774;80;98967;-69
2022/06/07 00:43:31;;;;;;;22.42;15.65;;;;;;;15.61;79.00;100523.19;1749648;80;25861;-68
2022/06/07 00:45:57;;;;;;;23.52;15.50;;;;;;;15.57;79.03;100523.05;1743575;80;99338;-68
2022/06/07 00:48:24;;;;;;;24.02;14.80;;;;;;;15.54;79.07;100522.73;1747693;79;25802;-68
2022/06/07 00:51:02;;;;;;;19.35;13.68;;;;;;;15.53;79.14;100516.94;1748539;79;26223;-69
2022/06/07 00:53:32;;;;;;;17.25;12.93;;;;;;;15.51;79.22;100512.61;1740903;80;99064;-70
2022/06/07 00:56:01;;;;;;;17.35;13.70;;;;;;;15.48;79.24;100515.51;1746947;80;26102;-72
2022/06/07 00:58:30;;;;;;;18.35;13.15;;;;;;;15.45;79.30;100508.95;1751547;79;99181;-69
2022/06/07 01:00:58;;;;;;;16.12;12.35;;;;;;;15.42;79.40;100514.08;1750171;79;26126;-70
2022/06/07 01:03:26;;;;;;;17.05;13.40;;;;;;;15.41;79.41;100516.88;1774100;78;99064;-68
2022/06/07 01:10:43;;;;;;;20.00;14.90;;;;;;;15.38;79.52;100506.28;1774534;78;28419;-68
2022/06/07 01:11:17;;;;;;;21.33;13.75;;;;;;;15.31;79.57;100519.80;1777611;78;99043;-68
2022/06/07 01:13:42;;;;;;;21.25;13.58;;;;;;;15.26;79.79;100514.21;1779748;78;25726;-68
2022/06/07 01:16:09;;;;;;;19.37;13.72;;;;;;;15.26;79.74;100511.99;1737911;80;99104;-68
2022/06/07 01:18:37;;;;;;;20.17;13.35;;;;;;;15.22;79.91;100507.27;1747006;80;29559;-68
2022/06/07 01:21:22;;;;;;;17.75;13.88;;;;;;;15.20;79.98;100503.80;1747755;80;25764;-69
2022/06/07 01:23:49;;;;;;;17.05;12.85;;;;;;;15.17;79.94;100508.53;1717571;81;99185;-68
2022/06/07 01:26:17;;;;;;;26.45;17.73;;;;;;;15.12;80.02;100511.53;1748397;80;25790;-69
2022/06/07 01:28:45;;;;;;;33.30;19.92;;;;;;;15.10;80.20;100514.81;1742748;80;99089;-68
2022/06/07 01:31:11;;;;;;;43.63;26.65;;;;;;;15.05;80.05;100511.55;1742219;80;27484;-71
2022/06/07 01:33:39;;;;;;;38.67;24.60;;;;;;;15.02;80.19;100510.38;1734663;80;99489;-69
2022/06/07 01:36:11;;;;;;;33.50;23.70;;;;;;;14.98;80.34;100501.23;1744825;80;25737;-69
2022/06/07 01:38:41;;;;;;;30.55;20.20;;;;;;;14.95;80.37;100498.25;1728136;81;26551;-69
2022/06/07 01:43:58;;;;;;;29.95;20.27;;;;;;;14.91;80.54;100500.76;1718376;81;27519;-67
2022/06/07 01:46:24;;;;;;;28.12;19.27;;;;;;;14.90;80.65;100499.02;1746395;80;99088;-67
2022/06/07 01:48:52;;;;;;;25.90;18.48;;;;;;;14.89;80.80;100506.73;1749532;80;25839;-69
2022/06/07 01:51:18;;;;;;;30.80;17.75;;;;;;;14.86;80.72;100509.14;1745940;80;26402;-68
2022/06/07 01:53:44;;;;;;;23.60;16.95;;;;;;;14.83;80.83;100516.56;1741079;80;98800;-69
2022/06/07 01:56:17;;;;;;;23.07;17.92;;;;;;;14.82;80.87;100516.18;1746302;80;27485;-69
2022/06/07 01:58:43;;;;;;;20.15;15.68;;;;;;;14.80;80.88;100518.97;1750106;80;99016;-69
2022/06/07 02:01:12;;;;;;;25.17;16.87;;;;;;;14.77;80.94;100519.65;1744471;80;25786;-69
2022/06/07 02:03:40;;;;;;;24.45;16.95;;;;;;;14.75;81.03;100522.44;1735447;80;99253;-68
2022/06/07 02:06:12;;;;;;;21.82;16.37;;;;;;;14.75;81.05;100524.27;1746174;80;25799;-69
2022/06/07 02:08:41;;;;;;;22.70;15.93;;;;;;;14.73;81.19;100511.36;1738150;80;29564;-69
2022/06/07 02:11:11;;;;;;;23.02;15.83;;;;;;;14.70;81.25;100504.33;1743922;80;99062;-69
2022/06/07 02:13:38;;;;;;;21.48;15.15;;;;;;;14.69;81.34;100503.07;1736937;80;28755;-69
2022/06/07 02:16:08;;;;;;;21.62;14.70;;;;;;;14.68;81.42;100498.16;1741823;80;99260;-69
2022/06/07 02:18:36;;;;;;;19.23;14.75;;;;;;;14.68;81.38;100502.69;1743196;80;25819;-68
2022/06/07 02:21:05;;;;;;;20.32;14.87;;;;;;;14.68;81.57;100498.16;1743487;80;27272;-68
2022/06/07 02:23:34;;;;;;;20.85;13.85;;;;;;;14.68;81.63;100490.55;1727484;81;99140;-69
2022/06/07 02:26:05;;;;;;;19.75;14.33;;;;;;;14.68;81.59;100490.55;1723489;81;25766;-69
2022/06/07 02:28:35;;;;;;;23.83;15.50;;;;;;;14.67;81.66;100495.55;1725371;81;99117;-70
2022/06/07 02:31:04;;;;;;;28.12;18.62;;;;;;;14.67;81.75;100495.55;1740121;80;25348;-69
2022/06/07 02:33:34;;;;;;;43.05;17.92;;;;;;;14.66;81.71;100496.52;1740346;80;99195;-68
2022/06/07 02:36:01;;;;;;;47.67;18.63;;;;;;;14.64;81.72;100495.27;1737939;80;25771;-68
2022/06/07 02:38:31;;;;;;;35.88;17.10;;;;;;;14.47;81.83;100466.65;1748100;80;46954;-68
2022/06/07 02:40:58;;;;;;;46.33;18.82;;;;;;;14.60;81.78;100502.69;1743688;80;99128;-67
2022/06/07 02:43:24;;;;;;;45.80;18.92;;;;;;;14.58;81.89;100499.69;1740865;80;25793;-70
2022/06/07 02:45:50;;;;;;;94.05;19.48;;;;;;;14.56;82.06;100499.79;1738251;80;99148;-70
2022/06/07 02:49:18;;;;;;;91.12;18.02;;;;;;;14.57;82.14;100505.57;1751296;80;25968;-68
2022/06/07 02:51:45;;;;;;;95.07;16.95;;;;;;;14.56;82.16;100502.48;1734544;80;99283;-69
2022/06/07 02:54:12;;;;;;;80.80;16.65;;;;;;;14.55;82.29;100503.45;1747092;80;25799;-70
2022/06/07 02:56:38;;;;;;;50.33;17.05;;;;;;;14.55;82.39;100498.05;1749111;80;25783;-69
2022/06/07 02:59:04;;;;;;;83.05;17.52;;;;;;;14.56;82.47;100502.97;1745083;80;99128;-69
2022/06/07 03:01:32;;;;;;;36.33;16.50;;;;;;;14.57;82.55;100510.97;1747958;80;25903;-69
2022/06/07 03:03:59;;;;;;;38.05;14.98;;;;;;;14.61;82.59;100506.25;1714346;80;99202;-70
2022/06/07 03:06:26;;;;;;;63.17;16.82;;;;;;;14.64;82.60;100506.54;1710845;81;25966;-69
2022/06/07 03:08:53;;;;;;;60.88;16.10;;;;;;;14.66;82.75;100503.27;1712068;81;25803;-69
2022/06/07 03:11:19;;;;;;;48.38;15.10;;;;;;;14.67;82.73;100506.34;1713497;81;99053;-70
2022/06/07 03:13:46;;;;;;;49.25;15.78;;;;;;;14.66;82.75;100511.36;1711941;81;26201;-70
2022/06/07 03:16:15;;;;;;;61.68;15.40;;;;;;;14.67;82.85;100505.00;1713122;81;99069;-70
2022/06/07 03:18:43;;;;;;;72.62;16.87;;;;;;;14.67;82.81;100506.34;1713610;81;25840;-70
2022/06/07 03:21:10;;;;;;;42.33;15.50;;;;;;;14.66;82.91;100511.36;1712805;81;25783;-70
2022/06/07 03:23:38;;;;;;;42.78;15.95;;;;;;;14.65;82.92;100502.88;1712610;81;99037;-69
2022/06/07 03:26:12;;;;;;;44.93;15.63;;;;;;;14.67;83.05;100507.70;1715921;81;27233;-69
2022/06/07 03:28:38;;;;;;;77.95;16.00;;;;;;;14.72;83.30;100503.75;1708665;81;99213;-69
2022/06/07 03:31:10;;;;;;;31.15;15.72;;;;;;;14.72;83.19;100498.35;1706965;81;26319;-68
2022/06/07 03:33:37;;;;;;;26.55;15.98;;;;;;;14.74;83.41;100498.25;1713116;81;99319;-69
2022/06/07 03:36:20;;;;;;;58.55;15.25;;;;;;;14.76;83.40;100496.33;1717101;81;29516;-69
2022/06/07 03:38:48;;;;;;;31.40;15.35;;;;;;;14.80;83.29;100507.31;1698541;81;25890;-69
2022/06/07 03:41:21;;;;;;;103.97;17.65;;;;;;;14.81;83.49;100513.96;1694560;81;99095;-69
2022/06/07 03:43:51;;;;;;;51.83;16.52;;;;;;;14.86;83.54;100519.94;1711708;81;25818;-69
2022/06/07 03:46:22;;;;;;;99.37;18.15;;;;;;;14.90;83.64;100516.56;1708935;81;98147;-68
2022/06/07 03:48:50;;;;;;;67.50;16.45;;;;;;;14.93;83.69;100521.28;1746667;80;28115;-70
2022/06/07 03:51:19;;;;;;;59.70;16.52;;;;;;;14.96;83.73;100510.78;1735813;80;26712;-69
2022/06/07 03:53:45;;;;;;;132.60;17.60;;;;;;;14.99;83.77;100509.72;1743200;80;98795;-68
2022/06/07 03:56:13;;;;;;;144.05;18.98;;;;;;;14.99;83.79;100521.38;1745955;80;25854;-68
2022/06/07 03:58:40;;;;;;;68.52;17.65;;;;;;;15.00;83.94;100508.75;1742497;80;99679;-68
2022/06/07 04:01:15;;;;;;;54.40;18.17;;;;;;;15.03;83.96;100516.66;1749113;80;28208;-69
2022/06/07 04:03:43;;;;;;;36.75;17.32;;;;;;;15.03;83.96;100523.40;1751357;78;99114;-68
2022/06/07 04:06:24;;;;;;;26.75;15.98;;;;;;;15.04;84.14;100519.25;1778173;78;26452;-69
2022/06/07 04:08:52;;;;;;;27.37;14.98;;;;;;;15.08;84.22;100519.45;1770293;78;25966;-68
2022/06/07 04:11:24;;;;;;;29.05;16.90;;;;;;;15.09;84.25;100522.53;1739903;80;99123;-69
2022/06/07 04:13:54;;;;;;;21.37;15.35;;;;;;;15.05;84.28;100521.47;1729178;80;33580;-69
2022/06/07 04:16:26;;;;;;;29.50;16.77;;;;;;;15.04;84.44;100525.14;1723462;80;99069;-68
2022/06/07 04:18:54;;;;;;;29.10;16.17;;;;;;;15.08;84.56;100526.67;1727106;80;26469;-71
2022/06/07 04:21:22;;;;;;;28.00;16.52;;;;;;;15.06;84.61;100523.20;1778488;78;26662;-69
2022/06/07 04:23:49;;;;;;;28.90;16.30;;;;;;;15.09;84.63;100518.96;1774257;78;98927;-68
2022/06/07 04:26:23;;;;;;;24.37;15.28;;;;;;;15.11;84.68;100522.42;1777015;78;28149;-69
2022/06/07 04:28:48;;;;;;;24.52;14.80;;;;;;;15.14;84.80;100524.93;1772341;78;98950;-69
2022/06/07 04:31:23;;;;;;;16.30;13.58;;;;;;;15.10;84.77;100519.34;1770842;78;25721;-69
2022/06/07 04:33:50;;;;;;;19.32;14.95;;;;;;;15.08;84.74;100523.98;1768252;78;99246;-69
2022/06/07 04:36:21;;;;;;;22.25;15.72;;;;;;;15.06;84.92;100518.67;1719288;81;25761;-69
2022/06/07 04:38:49;;;;;;;17.12;13.03;;;;;;;15.08;85.06;100519.45;1717746;81;27858;-69
2022/06/07 04:41:19;;;;;;;14.25;12.53;;;;;;;15.08;85.02;100519.92;1721006;81;99136;-69
2022/06/07 04:43:49;;;;;;;17.07;13.08;;;;;;;15.05;84.98;100518.29;1741522;80;25668;-70
2022/06/07 04:46:16;;;;;;;16.23;12.47;;;;;;;15.03;85.13;100517.52;1716739;81;99251;-69
2022/06/07 04:48:44;;;;;;;18.50;13.60;;;;;;;15.03;85.23;100513.95;1725368;80;26589;-70
2022/06/07 04:51:15;;;;;;;18.12;13.80;;;;;;;15.04;85.25;100520.61;1733170;80;26356;-70
2022/06/07 04:53:44;;;;;;;22.10;14.33;;;;;;;15.04;85.23;100523.78;1726049;80;99174;-68
2022/06/07 04:56:15;;;;;;;21.80;14.13;;;;;;;15.02;85.20;100520.31;1730618;80;25758;-68
2022/06/07 04:58:45;;;;;;;26.80;16.65;;;;;;;15.01;85.24;100523.50;1724807;80;99143;-69
2022/06/07 05:01:20;;;;;;;24.10;17.32;;;;;;;15.02;85.30;100523.02;1729178;80;25811;-69
2022/06/07 05:03:47;;;;;;;22.82;17.45;;;;;;;15.01;85.34;100523.98;1723881;81;99214;-68
2022/06/07 05:06:29;;;;;;;22.85;17.05;;;;;;;15.03;85.38;100529.67;1726043;81;25938;-70
2022/06/07 05:09:01;;;;;;;24.27;16.48;;;;;;;15.07;85.49;100533.04;1759945;79;26046;-69
2022/06/07 05:11:29;;;;;;;26.65;17.92;;;;;;;15.08;85.41;100523.49;1774451;79;99125;-69
2022/06/07 05:13:59;;;;;;;21.65;15.75;;;;;;;15.09;85.42;100536.50;1771959;79;26272;-68
2022/06/07 05:16:26;;;;;;;23.60;15.65;;;;;;;15.09;85.37;100529.28;1764482;79;99066;-74
2022/06/07 05:18:54;;;;;;;34.05;14.83;;;;;;;15.13;85.50;100534.00;1763425;79;25917;-73
2022/06/07 05:21:23;;;;;;;27.85;15.55;;;;;;;15.15;85.66;100528.02;1766851;79;25801;-73
2022/06/07 05:23:49;;;;;;;32.00;14.73;;;;;;;15.15;85.81;100527.53;1759154;79;98982;-72
2022/06/07 05:26:37;;;;;;;33.48;13.93;;;;;;;15.15;85.79;100525.31;1762885;79;25804;-71
2022/06/07 05:29:18;;;;;;;21.35;14.63;;;;;;;15.18;85.90;100523.28;1760150;79;99173;-72
2022/06/07 05:31:46;;;;;;;28.83;13.90;;;;;;;15.24;85.98;100522.02;1767680;79;25810;-73
2022/06/07 05:34:14;;;;;;;23.25;13.55;;;;;;;15.33;85.93;100519.22;1765811;79;99291;-71
2022/06/07 05:36:40;;;;;;;24.52;13.28;;;;;;;15.42;85.99;100521.31;1733875;80;26258;-71
2022/06/07 05:39:27;;;;;;;27.50;13.80;;;;;;;15.54;85.96;100525.43;1714124;81;26245;-72
2022/06/07 05:41:54;;;;;;;25.12;13.08;;;;;;;15.64;85.94;100528.39;1738118;81;98747;-72
2022/06/07 05:44:22;;;;;;;20.80;13.83;;;;;;;15.76;85.93;100527.58;1730169;80;27165;-73
2022/06/07 05:46:49;;;;;;;18.48;13.32;;;;;;;15.85;85.84;100539.13;1725514;81;99200;-74
2022/06/07 05:49:17;;;;;;;20.57;13.35;;;;;;;15.91;85.91;100536.02;1726939;81;26479;-74
2022/06/07 05:51:44;;;;;;;19.48;13.38;;;;;;;16.03;85.81;100541.08;1724323;81;99170;-73
2022/06/07 05:54:14;;;;;;;23.12;14.07;;;;;;;16.08;85.73;100544.34;1725518;81;27393;-75
2022/06/07 05:56:42;;;;;;;19.48;12.95;;;;;;;16.15;85.74;100552.91;1728111;81;26062;-75
2022/06/07 05:59:10;;;;;;;21.93;13.13;;;;;;;16.23;85.76;100548.70;1731186;81;99161;-74
2022/06/07 06:01:39;;;;;;;20.45;13.68;;;;;;;16.35;85.74;100553.76;1726440;81;25845;-74
2022/06/07 06:04:07;;;;;;;23.10;12.95;;;;;;;16.43;85.62;100555.45;1724431;80;99327;-74
2022/06/07 06:06:35;;;;;;;21.33;14.33;;;;;;;16.53;85.65;100558.38;1728391;80;27564;-74
2022/06/07 06:11:47;;;;;;;21.00;13.65;;;;;;;16.69;85.50;100547.39;1731225;80;98932;-70
2022/06/07 06:14:15;;;;;;;21.50;14.15;;;;;;;16.76;85.49;100551.40;1727134;80;25917;-71
2022/06/07 06:16:41;;;;;;;19.40;12.80;;;;;;;16.84;85.51;100547.66;1731700;80;99020;-71
2022/06/07 06:19:10;;;;;;;20.32;13.30;;;;;;;16.91;85.40;100547.61;1738313;81;27409;-72
2022/06/07 06:21:43;;;;;;;19.27;12.95;;;;;;;16.96;85.43;100546.80;1727121;80;99294;-71
2022/06/07 06:24:12;;;;;;;25.82;12.35;;;;;;;17.00;85.34;100548.30;1724010;80;25802;-71
2022/06/07 06:26:40;;;;;;;17.52;12.53;;;;;;;17.02;85.22;100557.19;1733526;80;26304;-71
2022/06/07 06:29:09;;;;;;;19.35;13.55;;;;;;;16.99;85.15;100553.34;1721824;80;99182;-71
2022/06/07 06:31:38;;;;;;;18.30;11.00;;;;;;;16.98;85.18;100558.87;1731741;80;27477;-72
2022/06/07 06:34:06;;;;;;;15.70;11.57;;;;;;;16.98;85.20;100555.67;1730728;80;99229;-71
2022/06/07 06:36:39;;;;;;;15.60;12.05;;;;;;;16.98;85.06;100566.50;1726869;80;25801;-73
2022/06/07 06:39:06;;;;;;;20.27;12.45;;;;;;;16.99;85.06;100557.41;1732055;80;26056;-72
2022/06/07 06:41:33;;;;;;;17.92;13.43;;;;;;;17.04;84.96;100548.95;1729049;80;99111;-72
2022/06/07 06:44:04;;;;;;;14.35;11.12;;;;;;;17.11;84.91;100552.47;1729821;80;27397;-74
2022/06/07 06:46:39;;;;;;;16.87;12.30;;;;;;;17.18;84.84;100548.34;1728329;80;99010;-70
2022/06/07 06:49:07;;;;;;;19.20;12.35;;;;;;;17.24;84.79;100544.80;1728554;80;25729;-72
2022/06/07 06:51:35;;;;;;;28.02;14.90;;;;;;;17.28;84.70;100550.38;1744885;80;99302;-70
2022/06/07 06:54:03;;;;;;;14.93;11.53;;;;;;;17.28;84.67;100551.25;1743347;79;26801;-72
2022/06/07 06:56:31;;;;;;;18.40;12.78;;;;;;;17.30;84.49;100549.78;1780121;78;27595;-72
2022/06/07 06:58:58;;;;;;;21.77;11.30;;;;;;;17.28;84.38;100556.66;1772262;78;98948;-70
2022/06/07 07:01:31;;;;;;;17.52;11.68;;;;;;;17.26;84.23;100555.05;1766028;79;25845;-71
2022/06/07 07:03:59;;;;;;;17.80;10.85;;;;;;;17.27;84.29;100553.58;1773440;78;99184;-70
2022/06/07 07:06:27;;;;;;;17.40;11.10;;;;;;;17.31;84.20;100556.93;1745620;79;25821;-71
2022/06/07 07:08:55;;;;;;;21.80;12.45;;;;;;;17.34;84.16;100555.35;1767647;78;28255;-73
2022/06/07 07:11:29;;;;;;;15.83;12.20;;;;;;;17.39;84.13;100549.11;1775292;78;99157;-71
2022/06/07 07:13:59;;;;;;;23.50;13.40;;;;;;;17.46;84.06;100549.03;1738867;80;25855;-70
2022/06/07 07:16:41;;;;;;;17.30;11.65;;;;;;;17.55;84.00;100551.07;1738061;80;99113;-70
2022/06/07 07:19:09;;;;;;;18.67;12.63;;;;;;;17.65;84.07;100550.77;1742469;80;26143;-70
2022/06/07 07:21:39;;;;;;;21.50;13.75;;;;;;;17.65;83.77;100543.98;1723838;81;99280;-70
2022/06/07 07:24:10;;;;;;;16.52;11.68;;;;;;;17.68;83.77;100539.73;1721578;81;27256;-72
2022/06/07 07:26:36;;;;;;;19.48;11.48;;;;;;;17.72;83.68;100550.72;1700206;82;25747;-72
2022/06/07 07:29:06;;;;;;;17.05;11.08;;;;;;;17.78;83.62;100546.69;1712239;81;99178;-70
2022/06/07 07:31:36;;;;;;;22.00;12.20;;;;;;;17.84;83.58;100551.16;1719203;81;25342;-70
2022/06/07 07:34:07;;;;;;;17.80;11.00;;;;;;;17.90;83.56;100547.61;1737393;80;99144;-70
2022/06/07 07:36:36;;;;;;;23.15;13.08;;;;;;;17.99;83.56;100548.27;1725886;81;25904;-72
2022/06/07 07:39:04;;;;;;;18.65;11.80;;;;;;;18.11;83.61;100552.77;1744034;80;26531;-74
2022/06/07 07:41:34;;;;;;;23.90;9.65;;;;;;;18.21;83.43;100556.97;1740691;80;98950;-71
2022/06/07 07:44:05;;;;;;;16.57;10.20;;;;;;;18.29;83.54;100560.83;1727554;81;25684;-71
2022/06/07 07:46:35;;;;;;;16.85;10.15;;;;;;;18.33;83.34;100545.17;1722848;81;98938;-72
2022/06/07 07:49:05;;;;;;;17.25;11.00;;;;;;;18.46;83.21;100548.17;1716806;81;26307;-71
2022/06/07 07:51:38;;;;;;;18.52;10.72;;;;;;;18.52;83.18;100554.98;1717551;81;26396;-72
2022/06/07 07:54:09;;;;;;;15.18;9.40;;;;;;;18.60;82.93;100547.59;1723067;80;98850;-71
2022/06/07 07:56:38;;;;;;;18.23;11.38;;;;;;;18.66;82.88;100552.58;1725816;81;25788;-73
2022/06/07 07:59:08;;;;;;;15.38;10.03;;;;;;;18.73;82.50;100553.33;1725658;81;99498;-73
2022/06/07 08:01:36;;;;;;;14.45;9.48;;;;;;;18.78;82.58;100551.12;1715171;81;25796;-73
2022/06/07 08:04:05;;;;;;;17.12;10.80;;;;;;;18.84;82.08;100553.84;1722735;81;99008;-70
2022/06/07 08:06:33;;;;;;;15.65;10.48;;;;;;;18.86;82.02;100546.44;1737151;79;25830;-70
2022/06/07 08:09:04;;;;;;;9.98;6.92;;;;;;;18.92;81.88;100550.02;1724510;80;25907;-70
2022/06/07 08:11:36;;;;;;;7.72;6.22;;;;;;;18.99;81.84;100549.91;1720355;80;99047;-69
2022/06/07 08:14:07;;;;;;;11.38;6.67;;;;;;;19.08;81.75;100546.45;1715823;80;25674;-70
2022/06/07 08:16:34;;;;;;;12.35;6.95;;;;;;;19.23;81.26;100553.00;1771660;78;99198;-69
2022/06/07 08:19:02;;;;;;;9.78;5.80;;;;;;;19.30;80.31;100547.44;1775926;78;26454;-70
2022/06/07 08:21:30;;;;;;;10.08;7.50;;;;;;;19.44;79.68;100543.97;1746902;80;25813;-69
2022/06/07 08:23:57;;;;;;;9.05;6.92;;;;;;;19.44;79.68;100543.97;1748706;80;98872;-70
2022/06/07 08:26:26;;;;;;;10.72;7.03;;;;;;;19.52;79.33;100547.45;1741951;80;27239;-69
2022/06/07 08:28:57;;;;;;;14.75;7.35;;;;;;;19.60;79.23;100543.60;1741748;80;99279;-71
2022/06/07 08:31:27;;;;;;;9.13;6.08;;;;;;;19.69;78.87;100536.05;1722260;81;25798;-70
2022/06/07 08:39:27;;;;;;;8.05;5.10;;;;;;;20.01;77.37;100537.43;1727176;81;26504;-70
2022/06/07 08:42:27;;;;;;;7.85;5.17;;;;;;;20.13;76.70;100531.94;1727966;81;98784;-71
2022/06/07 08:45:17;;;;;;;8.78;6.10;;;;;;;20.26;76.26;100508.98;1782207;78;26272;-70
2022/06/07 08:47:56;;;;;;;7.67;5.12;;;;;;;20.26;76.26;100508.98;1745601;80;98948;-71
2022/06/07 08:50:31;;;;;;;5.78;4.25;;;;;;;20.49;75.64;100530.19;1740608;80;26328;-70
2022/06/07 08:53:02;;;;;;;5.03;4.53;;;;;;;20.56;75.19;100527.30;1715298;80;98758;-70
2022/06/07 08:55:36;;;;;;;5.83;4.92;;;;;;;20.50;74.28;100492.92;1726562;80;26478;-71
2022/06/07 08:58:19;;;;;;;8.60;4.87;;;;;;;20.71;74.29;100516.92;1730277;80;99404;-71
2022/06/07 09:00:57;;;;;;;6.42;4.47;;;;;;;20.71;74.29;100516.92;1734477;80;25706;-71
2022/06/07 09:03:37;;;;;;;8.75;4.97;;;;;;;20.84;73.74;100516.17;1748529;80;25790;-70
2022/06/07 09:06:09;;;;;;;13.80;7.42;;;;;;;20.93;73.19;100519.95;1719165;81;98348;-70
2022/06/07 09:08:43;;;;;;;8.45;5.53;;;;;;;21.05;72.92;100514.77;1717829;80;25403;-70
2022/06/07 09:14:05;;;;;;;7.30;4.42;;;;;;;21.27;72.29;100505.06;1727293;80;25805;-70
2022/06/07 09:16:43;;;;;;;6.53;5.08;;;;;;;21.33;72.13;100507.23;1727769;80;98652;-70
2022/06/07 09:19:25;;;;;;;7.08;4.67;;;;;;;21.38;71.96;100492.69;1721143;80;26386;-70
2022/06/07 09:21:58;;;;;;;7.87;4.28;;;;;;;21.43;71.81;100493.63;1728118;80;99197;-70
2022/06/07 09:24:44;;;;;;;5.80;4.53;;;;;;;21.48;71.59;100493.22;1726219;80;26323;-69
2022/06/07 09:27:21;;;;;;;6.67;3.65;;;;;;;21.62;71.47;100490.09;1722114;80;25872;-70
2022/06/07 09:29:56;;;;;;;5.72;4.00;;;;;;;21.72;71.14;100489.59;1726283;80;99433;-71
2022/06/07 09:32:26;;;;;;;7.83;4.42;;;;;;;21.88;70.99;100492.62;1787244;78;25740;-70
2022/06/07 09:34:59;;;;;;;;;;;;;;;21.98;70.50;100493.50;1791932;78;98671;-71
2022/06/07 09:37:39;;;;;;;9.90;4.75;;;;;;;22.10;70.30;100488.79;1781960;78;26300;-70
2022/06/07 09:40:29;;;;;;;6.35;4.60;;;;;;;22.22;70.37;100490.36;1784286;78;99003;-70
2022/06/07 09:43:13;;;;;;;7.70;4.87;;;;;;;22.35;70.19;100485.46;1781623;78;28693;-70
2022/06/07 09:45:51;;;;;;;6.65;4.50;;;;;;;22.45;70.33;100485.45;1783340;78;25688;-70
2022/06/07 09:48:42;;;;;;;5.05;4.50;;;;;;;22.44;69.89;100486.96;1772541;78;98632;-70
2022/06/07 09:51:28;;;;;;;6.15;4.25;;;;;;;22.44;69.91;100481.00;1775872;78;25737;-70
2022/06/07 09:54:03;;;;;;;4.30;3.90;;;;;;;22.63;69.92;100485.55;1774984;78;98969;-70
2022/06/07 09:57:00;;;;;;;4.87;3.90;;;;;;;22.83;69.91;100478.19;1782411;78;27418;-71
2022/06/07 09:59:52;;;;;;;8.53;4.40;;;;;;;23.00;69.78;100481.51;1778606;78;98592;-70
2022/06/07 10:03:00;;;;;;;7.20;4.20;;;;;;;23.15;69.27;100470.94;1720341;79;26311;-70
2022/06/07 10:05:37;;;;;;;10.90;3.58;;;;;;;23.12;68.41;100460.30;1775875;78;98743;-71
2022/06/07 10:08:52;;;;;;;9.23;4.10;;;;;;;23.06;66.33;100463.64;1750888;80;25712;-71
2022/06/07 10:11:56;;;;;;;8.10;4.87;;;;;;;23.12;66.63;100458.94;1731674;80;99015;-71
2022/06/07 10:14:39;;;;;;;7.28;4.80;;;;;;;23.29;66.59;100456.25;1757728;80;25771;-70
2022/06/07 10:17:37;;;;;;;10.05;5.10;;;;;;;23.42;66.67;100457.22;1747833;80;99011;-70
2022/06/07 10:20:18;;;;;;;6.47;5.08;;;;;;;23.48;66.66;100453.02;1740465;80;25806;-70
2022/06/07 10:23:05;;;;;;;5.50;4.92;;;;;;;23.44;66.68;100456.56;1742510;80;98733;-70
2022/06/07 10:26:10;;;;;;;8.68;4.70;;;;;;;23.35;66.76;100446.58;1752383;78;28369;-68
2022/06/07 10:29:12;;;;;;;6.62;5.08;;;;;;;23.32;66.72;100448.25;1739371;80;98850;-67
2022/06/07 10:31:54;;;;;;;7.20;5.17;;;;;;;23.26;66.73;100443.39;1742922;80;25876;-68
2022/06/07 10:34:39;;;;;;;9.10;4.95;;;;;;;23.26;66.81;100443.39;1739868;80;98872;-68
2022/06/07 10:37:25;;;;;;;10.53;4.95;;;;;;;23.26;67.02;100442.02;1739945;80;25760;-69
2022/06/07 10:40:24;;;;;;;11.43;5.12;;;;;;;23.27;67.02;100444.60;1761008;80;27421;-69
2022/06/07 10:42:58;;;;;;;8.08;5.75;;;;;;;23.38;67.07;100444.04;1677048;82;25720;-68
2022/06/07 10:45:31;;;;;;;7.37;5.67;;;;;;;23.48;66.80;100437.45;1675698;84;25807;-69
2022/06/07 10:48:32;;;;;;;7.67;4.70;;;;;;;23.64;66.82;100434.92;1727585;80;99135;-69
2022/06/07 10:54:15;;;;;;;7.45;5.00;;;;;;;23.65;65.92;100434.42;1742750;80;98764;-70
2022/06/07 10:56:45;;;;;;;17.30;5.15;;;;;;;23.60;65.86;100429.41;1742697;80;26224;-71
2022/06/07 10:59:18;;;;;;;6.97;4.40;;;;;;;23.66;66.01;100423.83;1741945;79;98897;-70
2022/06/07 11:02:17;;;;;;;8.48;5.12;;;;;;;23.68;66.00;100432.73;1742597;80;25754;-70
2022/06/07 11:10:53;;;;;;;9.13;4.55;;;;;;;23.56;65.32;100422.53;1770443;78;98943;-69
2022/06/07 11:13:53;;;;;;;9.40;4.33;;;;;;;23.63;65.18;100420.89;1781302;78;26464;-69
2022/06/07 11:16:36;;;;;;;4.42;3.45;;;;;;;23.67;64.93;100426.91;1776903;78;25833;-71
2022/06/07 11:19:04;;;;;;;6.60;4.15;;;;;;;23.62;64.37;100427.37;1770308;78;98520;-68
2022/06/07 11:21:38;;;;;;;7.47;4.30;;;;;;;23.59;64.18;100429.05;1785259;78;27534;-68
2022/06/07 11:24:17;;;;;;;5.55;4.08;;;;;;;23.59;64.18;100437.77;1773883;78;98625;-68
2022/06/07 11:26:58;;;;;;;7.37;4.67;;;;;;;23.60;64.09;100437.63;1772043;78;25993;-68
2022/06/07 11:29:28;;;;;;;9.00;5.05;;;;;;;23.55;63.82;100443.20;1773978;78;97949;-67
2022/06/07 11:31:56;;;;;;;12.85;6.67;;;;;;;23.49;63.68;100436.95;1774406;78;25852;-70
2022/06/07 11:34:36;;;;;;;9.13;6.22;;;;;;;23.46;63.66;100435.38;1772299;78;28090;-69
2022/06/07 11:37:21;;;;;;;14.73;7.12;;;;;;;23.46;63.76;100435.38;1772797;78;98490;-69
2022/06/07 11:39:56;;;;;;;9.78;5.92;;;;;;;23.44;63.71;100434.67;1746019;80;25913;-69
2022/06/07 11:42:35;;;;;;;10.25;6.53;;;;;;;23.38;63.51;100442.16;1726646;81;98638;-69
2022/06/07 11:45:19;;;;;;;6.75;5.58;;;;;;;23.31;63.42;100440.55;1722105;81;25726;-68
2022/06/07 11:47:50;;;;;;;8.98;5.22;;;;;;;23.25;63.38;100445.77;1719110;81;98678;-69
2022/06/07 11:50:27;;;;;;;19.57;8.60;;;;;;;23.19;63.14;100438.17;1743575;80;25803;-69
2022/06/07 11:53:01;;;;;;;9.55;5.33;;;;;;;23.18;63.05;100441.92;1714696;81;98962;-70
2022/06/07 11:55:32;;;;;;;6.95;4.75;;;;;;;23.22;62.98;100437.88;1719014;81;25799;-69
2022/06/07 11:58:07;;;;;;;13.45;5.08;;;;;;;23.22;62.84;100438.73;1720544;81;25858;-68
2022/06/07 12:00:38;;;;;;;6.97;4.47;;;;;;;23.22;62.78;100437.37;1740570;80;98794;-70
2022/06/07 12:03:10;;;;;;;9.18;5.45;;;;;;;23.20;62.92;100436.66;1781695;78;25766;-69
2022/06/07 12:05:48;;;;;;;;;;;;;;;23.18;62.83;100443.30;1772461;78;98738;-69